Time;durP1;ratioP1;P1;durP2;ratioP2;P2;SDS_P1;SDS_P2;PMS_P1;PMS_P2;Temp;Humidity;BMP_temperature;BMP_pressure;BME280_temperature;BME280_humidity;BME280_pressure;Samples;Min_cycle;Max_cycle;Signal;HPM_P1;HPM_P2
2022/04/17 00:00:38;;;;;;;8.18;5.45;;;8.60;70.10;;;;;;6039007;23;95501;-69
2022/04/17 00:03:06;;;;;;;6.53;5.28;;;8.50;69.90;;;;;;6040605;23;95322;-69
2022/04/17 00:05:35;;;;;;;7.43;5.88;;;8.60;71.00;;;;;;6066072;23;92395;-69
2022/04/17 00:08:02;;;;;;;7.75;5.97;;;8.50;70.40;;;;;;6041150;23;92386;-69
2022/04/17 00:10:30;;;;;;;7.68;5.35;;;8.50;70.60;;;;;;6066193;23;93199;-69
2022/04/17 00:12:57;;;;;;;7.28;5.78;;;8.50;71.00;;;;;;6066245;23;92830;-69
2022/04/17 00:15:25;;;;;;;7.25;5.68;;;8.50;70.80;;;;;;6040572;23;92389;-69
2022/04/17 00:17:52;;;;;;;8.32;5.70;;;8.50;70.70;;;;;;6040686;23;95219;-69
2022/04/17 00:20:19;;;;;;;6.90;5.63;;;8.50;71.00;;;;;;6066261;23;93240;-69
2022/04/17 00:22:47;;;;;;;7.40;6.05;;;8.50;71.60;;;;;;6039960;23;95617;-69
2022/04/17 00:25:16;;;;;;;7.47;5.97;;;8.50;71.10;;;;;;6039040;23;95253;-68
2022/04/17 00:27:43;;;;;;;8.13;5.75;;;8.50;71.20;;;;;;6039274;23;102085;-68
2022/04/17 00:30:10;;;;;;;8.65;6.30;;;8.40;71.50;;;;;;6066179;23;93620;-68
2022/04/17 00:32:38;;;;;;;6.50;5.80;;;8.40;71.60;;;;;;6040406;23;92844;-68
2022/04/17 00:35:06;;;;;;;6.88;6.18;;;8.40;71.60;;;;;;6040713;23;92497;-68
2022/04/17 00:37:34;;;;;;;6.50;5.78;;;8.40;71.70;;;;;;6066253;23;92559;-68
2022/04/17 00:40:01;;;;;;;7.18;6.40;;;8.30;72.00;;;;;;6066045;23;93386;-68
2022/04/17 00:42:28;;;;;;;7.63;6.57;;;8.30;72.20;;;;;;6040486;23;91745;-68
2022/04/17 00:44:55;;;;;;;6.88;6.10;;;8.30;72.10;;;;;;6066316;23;92403;-69
2022/04/17 00:47:22;;;;;;;7.38;5.97;;;8.30;72.10;;;;;;6040694;23;92328;-68
2022/04/17 00:49:49;;;;;;;7.03;6.30;;;8.30;72.60;;;;;;6038659;23;96804;-68
2022/04/17 00:52:19;;;;;;;7.28;6.25;;;8.30;73.00;;;;;;6040197;23;95234;-68
2022/04/17 00:54:48;;;;;;;6.80;5.93;;;8.20;73.00;;;;;;6039707;23;92379;-68
2022/04/17 00:57:16;;;;;;;7.90;6.90;;;8.20;72.90;;;;;;6066282;23;92419;-68
2022/04/17 00:59:45;;;;;;;8.05;6.57;;;8.20;73.10;;;;;;6039600;23;95771;-68
2022/04/17 01:02:16;;;;;;;10.07;7.18;;;8.20;73.60;;;;;;6065990;23;92889;-68
2022/04/17 01:04:45;;;;;;;7.10;6.35;;;8.10;74.10;;;;;;6016178;23;92512;-69
2022/04/17 01:07:13;;;;;;;8.02;5.97;;;8.10;73.60;;;;;;6039997;23;106842;-68
2022/04/17 01:09:43;;;;;;;8.02;6.43;;;8.10;74.00;;;;;;6015776;23;94182;-68
2022/04/17 01:12:13;;;;;;;7.70;6.90;;;8.10;73.90;;;;;;6040345;23;93836;-68
2022/04/17 01:14:41;;;;;;;8.30;6.78;;;8.00;73.50;;;;;;6038391;23;95405;-70
2022/04/17 01:17:09;;;;;;;7.18;6.15;;;8.00;73.70;;;;;;6066154;23;92412;-68
2022/04/17 01:19:39;;;;;;;9.02;6.68;;;8.00;73.90;;;;;;6015758;23;95596;-68
2022/04/17 01:22:11;;;;;;;8.40;6.32;;;7.90;74.20;;;;;;6065827;23;95826;-68
2022/04/17 01:27:25;;;;;;;7.78;6.97;;;7.90;75.00;;;;;;6065674;23;92466;-68
2022/04/17 01:29:53;;;;;;;9.00;6.18;;;7.80;74.90;;;;;;6039943;23;93218;-68
2022/04/17 01:32:21;;;;;;;10.50;7.00;;;7.80;74.90;;;;;;6066481;23;92860;-68
2022/04/17 01:34:49;;;;;;;7.57;6.78;;;7.80;75.00;;;;;;6040026;23;92350;-68
2022/04/17 01:37:17;;;;;;;11.13;7.20;;;7.80;74.90;;;;;;6039934;23;92515;-68
2022/04/17 01:39:45;;;;;;;7.85;6.68;;;7.80;75.70;;;;;;6063228;23;113199;-68
2022/04/17 01:42:12;;;;;;;9.68;7.40;;;7.70;75.90;;;;;;6015738;23;98237;-69
2022/04/17 01:44:40;;;;;;;9.50;6.72;;;7.70;75.70;;;;;;6066161;23;92409;-68
2022/04/17 01:47:07;;;;;;;8.60;7.30;;;7.70;76.00;;;;;;6065947;23;92411;-68
2022/04/17 01:49:34;;;;;;;7.72;6.93;;;7.70;76.30;;;;;;6065759;23;93248;-68
2022/04/17 01:52:02;;;;;;;8.85;7.82;;;7.70;76.20;;;;;;6065845;23;92843;-68
2022/04/17 01:54:29;;;;;;;8.77;7.85;;;7.60;76.80;;;;;;6065898;23;92374;-68
2022/04/17 01:56:56;;;;;;;11.93;7.88;;;7.60;76.80;;;;;;6065323;23;103628;-68
2022/04/17 01:59:24;;;;;;;12.23;8.35;;;7.60;76.60;;;;;;6039604;23;95864;-69
2022/04/17 02:01:52;;;;;;;8.13;6.97;;;7.60;76.70;;;;;;6039420;23;93954;-68
2022/04/17 02:04:19;;;;;;;12.60;8.50;;;7.60;76.90;;;;;;6064551;23;94812;-68
2022/04/17 02:06:47;;;;;;;9.65;8.07;;;7.50;77.30;;;;;;6039478;23;92906;-68
2022/04/17 02:09:15;;;;;;;10.52;7.55;;;7.50;77.90;;;;;;6066895;23;93168;-68
2022/04/17 02:11:44;;;;;;;12.98;7.65;;;7.50;78.10;;;;;;6041372;23;93266;-68
2022/04/17 02:14:12;;;;;;;10.13;8.00;;;7.40;77.80;;;;;;6066951;23;92456;-68
2022/04/17 02:16:40;;;;;;;9.70;7.82;;;7.40;78.20;;;;;;6066801;23;92423;-69
2022/04/17 02:19:07;;;;;;;12.57;8.65;;;7.40;78.00;;;;;;6066830;23;93290;-69
2022/04/17 02:21:35;;;;;;;11.73;8.57;;;7.40;78.40;;;;;;6040891;23;98663;-68
2022/04/17 02:24:02;;;;;;;9.65;7.90;;;7.40;78.70;;;;;;6041112;23;92496;-69
2022/04/17 02:26:30;;;;;;;11.07;8.43;;;7.30;79.40;;;;;;6041378;23;92507;-68
2022/04/17 02:28:59;;;;;;;13.00;8.50;;;7.40;79.70;;;;;;6064805;23;95463;-68
2022/04/17 02:31:27;;;;;;;8.85;7.93;;;7.30;79.90;;;;;;6066594;23;95348;-68
2022/04/17 02:33:54;;;;;;;10.45;8.20;;;7.30;79.50;;;;;;6040801;23;92790;-68
2022/04/17 02:36:22;;;;;;;12.57;8.48;;;7.30;79.40;;;;;;6041128;23;92464;-68
2022/04/17 02:38:49;;;;;;;8.90;7.75;;;7.30;79.60;;;;;;6040275;23;96677;-68
2022/04/17 02:41:16;;;;;;;11.02;8.98;;;7.30;80.00;;;;;;6041156;23;92857;-68
2022/04/17 02:43:43;;;;;;;8.90;7.55;;;7.30;80.10;;;;;;6066689;23;92410;-68
2022/04/17 02:46:10;;;;;;;12.55;8.07;;;7.20;80.50;;;;;;6067329;23;91777;-68
2022/04/17 02:48:36;;;;;;;12.85;8.05;;;7.30;80.80;;;;;;6016710;23;99300;-69
2022/04/17 02:51:04;;;;;;;12.70;8.18;;;7.30;81.20;;;;;;6066342;23;93099;-68
2022/04/17 02:53:32;;;;;;;11.43;7.88;;;7.20;80.50;;;;;;6064907;23;102862;-68
2022/04/17 02:56:00;;;;;;;11.65;8.38;;;7.20;80.70;;;;;;6066429;23;92411;-68
2022/04/17 02:58:27;;;;;;;13.15;9.38;;;7.20;80.70;;;;;;6040541;23;95770;-68
2022/04/17 03:06:25;;;;;;;11.07;9.23;;;7.20;80.80;;;;;;6040546;23;92434;-68
2022/04/17 03:09:04;;;;;;;9.77;8.32;;;7.10;81.10;;;;;;6040289;23;95924;-68
2022/04/17 03:11:31;;;;;;;12.38;9.35;;;7.20;81.40;;;;;;6067122;23;92951;-68
2022/04/17 03:13:58;;;;;;;11.70;8.93;;;7.10;81.70;;;;;;6066506;23;92328;-68
2022/04/17 03:16:25;;;;;;;9.70;8.38;;;7.10;82.20;;;;;;6066706;23;92645;-68
2022/04/17 03:18:52;;;;;;;12.15;9.15;;;7.00;81.80;;;;;;6064258;23;95302;-68
2022/04/17 03:21:20;;;;;;;10.32;8.32;;;7.00;82.30;;;;;;6017242;23;95051;-69
2022/04/17 03:23:46;;;;;;;14.18;8.95;;;7.00;81.70;;;;;;6066481;23;92382;-68
2022/04/17 03:26:13;;;;;;;9.43;8.40;;;7.00;81.60;;;;;;6066850;23;92400;-68
2022/04/17 03:28:40;;;;;;;11.55;9.30;;;7.00;81.80;;;;;;6065980;23;93292;-68
2022/04/17 03:31:07;;;;;;;12.32;8.05;;;7.00;81.40;;;;;;6040446;23;92878;-68
2022/04/17 03:33:34;;;;;;;9.82;8.55;;;7.00;81.50;;;;;;6041202;23;92622;-68
2022/04/17 03:36:01;;;;;;;10.35;8.88;;;7.00;81.30;;;;;;6066702;23;91698;-68
2022/04/17 03:38:28;;;;;;;13.57;8.93;;;6.90;81.30;;;;;;6066424;23;93175;-68
2022/04/17 03:40:55;;;;;;;11.85;9.15;;;6.90;81.70;;;;;;6040600;23;93084;-68
2022/04/17 03:43:23;;;;;;;11.63;9.15;;;6.90;81.80;;;;;;6065287;23;94865;-68
2022/04/17 03:45:50;;;;;;;9.85;8.73;;;6.90;82.10;;;;;;6040693;23;92442;-69
2022/04/17 03:48:18;;;;;;;12.07;9.68;;;6.80;83.60;;;;;;6066517;23;93098;-69
2022/04/17 03:50:47;;;;;;;10.40;9.30;;;6.70;84.70;;;;;;6040246;23;95429;-69
2022/04/17 03:53:14;;;;;;;13.00;9.88;;;6.60;85.40;;;;;;6066588;23;92412;-69
2022/04/17 03:55:41;;;;;;;11.55;9.30;;;6.50;85.50;;;;;;6066482;23;92401;-69
2022/04/17 03:58:08;;;;;;;12.63;9.73;;;6.40;86.00;;;;;;6065656;23;106660;-69
2022/04/17 04:00:35;;;;;;;10.57;9.48;;;6.40;87.00;;;;;;6066882;23;92840;-69
2022/04/17 04:03:03;;;;;;;10.15;9.10;;;6.30;87.70;;;;;;6017069;23;92502;-69
2022/04/17 04:05:31;;;;;;;10.55;9.25;;;6.20;88.00;;;;;;6040528;23;92497;-69
2022/04/17 04:07:58;;;;;;;11.82;8.90;;;6.20;88.60;;;;;;6038494;23;98041;-69
2022/04/17 04:10:25;;;;;;;11.35;9.52;;;6.10;89.30;;;;;;6066209;23;95351;-69
2022/04/17 04:12:52;;;;;;;12.60;9.13;;;6.00;89.50;;;;;;6066283;23;92413;-69
2022/04/17 04:15:19;;;;;;;10.70;9.50;;;5.90;89.80;;;;;;6040285;23;92476;-70
2022/04/17 04:17:46;;;;;;;12.75;10.07;;;5.90;90.00;;;;;;6039654;23;111623;-69
2022/04/17 04:20:13;;;;;;;11.57;9.70;;;5.80;90.30;;;;;;6039447;23;95657;-69
2022/04/17 04:22:40;;;;;;;13.52;9.75;;;5.80;90.50;;;;;;6040410;23;92356;-69
2022/04/17 04:25:07;;;;;;;11.95;8.95;;;5.70;90.50;;;;;;6040529;23;91769;-69
2022/04/17 04:30:20;;;;;;;14.52;9.68;;;5.60;90.80;;;;;;6044607;23;95114;-69
2022/04/17 04:32:52;;;;;;;12.73;9.48;;;5.60;90.60;;;;;;6065288;23;94711;-69
2022/04/17 04:35:20;;;;;;;12.48;10.13;;;5.60;90.50;;;;;;6066047;23;92432;-69
2022/04/17 04:37:48;;;;;;;12.38;9.63;;;5.60;90.50;;;;;;6064963;23;106347;-69
2022/04/17 04:40:15;;;;;;;13.02;11.55;;;5.60;90.60;;;;;;6066026;23;92782;-69
2022/04/17 04:42:42;;;;;;;16.73;11.18;;;5.70;90.60;;;;;;6039612;23;92431;-69
2022/04/17 04:47:55;;;;;;;12.90;10.48;;;5.70;90.20;;;;;;6065622;23;93376;-69
2022/04/17 04:50:22;;;;;;;13.65;9.95;;;5.80;90.10;;;;;;6066086;23;92902;-70
2022/04/17 04:52:49;;;;;;;11.88;10.63;;;5.80;90.10;;;;;;6040295;23;92350;-69
2022/04/17 04:55:16;;;;;;;12.23;10.80;;;5.80;90.30;;;;;;6065249;23;92366;-69
2022/04/17 04:57:43;;;;;;;12.00;10.30;;;5.90;90.20;;;;;;6063901;23;97232;-69
2022/04/17 05:00:10;;;;;;;14.48;10.90;;;5.90;90.10;;;;;;6065039;23;95330;-69
2022/04/17 05:02:40;;;;;;;13.65;11.43;;;6.00;89.80;;;;;;6039503;23;102137;-69
2022/04/17 05:05:08;;;;;;;15.18;11.32;;;6.00;89.60;;;;;;6039582;23;92554;-69
2022/04/17 05:07:36;;;;;;;12.23;10.40;;;6.00;88.80;;;;;;6039251;23;95278;-69
2022/04/17 05:10:04;;;;;;;13.43;12.05;;;6.10;89.00;;;;;;6015424;23;95865;-69
2022/04/17 05:12:32;;;;;;;14.40;11.85;;;6.10;88.30;;;;;;6040027;23;92383;-69
2022/04/17 05:15:00;;;;;;;11.95;10.75;;;6.20;88.30;;;;;;6066110;23;91695;-69
2022/04/17 05:17:26;;;;;;;14.00;11.27;;;6.20;88.20;;;;;;6065358;23;93143;-69
2022/04/17 05:19:53;;;;;;;14.98;11.23;;;6.30;88.00;;;;;;6065336;23;93106;-69
2022/04/17 05:22:22;;;;;;;14.52;10.73;;;6.40;87.90;;;;;;6063416;23;94697;-69
2022/04/17 05:24:49;;;;;;;13.27;11.02;;;6.50;86.90;;;;;;6065556;23;92668;-69
2022/04/17 05:27:16;;;;;;;12.18;10.00;;;6.60;86.50;;;;;;6038694;23;95637;-68
2022/04/17 05:29:43;;;;;;;11.77;10.35;;;7.00;85.70;;;;;;6039277;23;98403;-68
2022/04/17 05:32:10;;;;;;;13.07;10.13;;;7.70;84.30;;;;;;6065219;23;92304;-68
2022/04/17 05:34:37;;;;;;;12.35;10.63;;;8.60;81.30;;;;;;6065376;23;92443;-70
2022/04/17 05:37:04;;;;;;;14.38;11.23;;;9.40;78.00;;;;;;6064816;23;93221;-69
2022/04/17 05:39:31;;;;;;;12.57;10.70;;;10.10;75.30;;;;;;6065605;23;93038;-69
2022/04/17 05:41:59;;;;;;;11.52;10.35;;;10.70;72.60;;;;;;6064816;23;92339;-70
2022/04/17 05:44:27;;;;;;;11.90;10.65;;;11.10;70.80;;;;;;6065078;23;92382;-70
2022/04/17 05:46:56;;;;;;;12.50;11.20;;;11.40;69.30;;;;;;6063680;23;95630;-70
2022/04/17 05:49:23;;;;;;;13.57;11.52;;;11.70;68.00;;;;;;6064813;23;95356;-70
2022/04/17 05:51:51;;;;;;;13.07;10.98;;;11.70;66.80;;;;;;6065388;23;92783;-70
2022/04/17 05:54:18;;;;;;;13.48;12.05;;;11.60;66.60;;;;;;6064915;23;92429;-70
2022/04/17 05:56:44;;;;;;;12.88;11.18;;;11.30;67.20;;;;;;6038897;23;95701;-70
2022/04/17 05:59:11;;;;;;;13.10;11.48;;;11.20;67.80;;;;;;6038692;23;95752;-70
2022/04/17 06:01:38;;;;;;;13.90;11.88;;;11.40;67.80;;;;;;6065413;23;92720;-70
2022/04/17 06:04:05;;;;;;;12.07;10.77;;;11.80;66.90;;;;;;6039779;23;91659;-70
2022/04/17 06:06:32;;;;;;;14.00;12.07;;;12.20;65.10;;;;;;6039352;23;93186;-70
2022/04/17 06:09:00;;;;;;;14.30;11.80;;;12.20;64.70;;;;;;6039320;23;92914;-70
2022/04/17 06:11:27;;;;;;;15.25;12.80;;;12.10;64.60;;;;;;6037086;23;94956;-70
2022/04/17 06:13:55;;;;;;;12.63;11.18;;;11.90;65.00;;;;;;6038946;23;103280;-70
2022/04/17 06:16:22;;;;;;;15.75;11.82;;;11.80;66.40;;;;;;6064514;23;93127;-70
2022/04/17 06:18:53;;;;;;;13.55;11.63;;;11.90;66.00;;;;;;6064862;23;92698;-70
2022/04/17 06:21:30;;;;;;;14.15;10.98;;;12.50;65.50;;;;;;6064940;23;92843;-70
2022/04/17 06:23:57;;;;;;;13.57;12.15;;;12.90;63.40;;;;;;6039583;23;92393;-70
2022/04/17 06:26:24;;;;;;;16.48;12.50;;;13.00;62.70;;;;;;6038723;23;93259;-70
2022/04/17 06:28:51;;;;;;;13.23;11.90;;;13.00;62.30;;;;;;6064893;23;93702;-69
2022/04/17 06:31:18;;;;;;;14.70;11.82;;;13.10;61.70;;;;;;6039141;23;92482;-69
2022/04/17 06:33:45;;;;;;;12.32;11.13;;;13.00;61.70;;;;;;6038283;23;106867;-69
2022/04/17 06:36:12;;;;;;;12.60;11.25;;;12.90;63.10;;;;;;6037204;23;94848;-69
2022/04/17 06:38:39;;;;;;;14.60;13.10;;;12.90;63.40;;;;;;6064538;23;95357;-69
2022/04/17 06:41:05;;;;;;;17.70;12.82;;;12.80;63.10;;;;;;6014973;23;92874;-69
2022/04/17 06:43:33;;;;;;;14.43;12.68;;;12.90;63.30;;;;;;6039001;23;92588;-69
2022/04/17 06:46:00;;;;;;;15.05;12.52;;;13.00;64.20;;;;;;6064624;23;93014;-69
2022/04/17 06:48:27;;;;;;;13.50;12.10;;;13.10;64.00;;;;;;6038741;23;92794;-69
2022/04/17 06:50:55;;;;;;;13.15;11.45;;;13.30;63.20;;;;;;6064732;23;92385;-69
2022/04/17 06:53:22;;;;;;;13.60;11.90;;;13.50;62.30;;;;;;6065131;23;91658;-69
2022/04/17 06:55:50;;;;;;;12.95;11.65;;;13.80;60.90;;;;;;6039149;23;112241;-69
2022/04/17 06:58:18;;;;;;;13.90;12.48;;;14.00;60.40;;;;;;6040226;23;93094;-69
2022/04/17 07:00:45;;;;;;;13.70;12.23;;;14.20;60.20;;;;;;6064774;23;94786;-69
2022/04/17 07:03:15;;;;;;;13.77;12.38;;;14.50;59.60;;;;;;6040289;23;93294;-69
2022/04/17 07:05:43;;;;;;;13.52;12.23;;;14.70;58.90;;;;;;6066060;23;95520;-69
2022/04/17 07:08:10;;;;;;;15.50;13.95;;;15.00;58.10;;;;;;6065902;23;93027;-69
2022/04/17 07:10:39;;;;;;;13.57;12.18;;;15.30;57.00;;;;;;6065851;23;92381;-69
2022/04/17 07:13:08;;;;;;;12.48;11.05;;;15.40;56.50;;;;;;6040239;23;92550;-69
2022/04/17 07:15:35;;;;;;;13.30;11.80;;;15.30;56.10;;;;;;6065632;23;94396;-69
2022/04/17 07:18:02;;;;;;;15.00;13.38;;;15.30;55.30;;;;;;6040759;23;92367;-69
2022/04/17 07:20:30;;;;;;;12.98;11.57;;;15.60;55.10;;;;;;6065335;23;99527;-69
2022/04/17 07:23:00;;;;;;;13.90;12.63;;;16.00;54.30;;;;;;6016778;23;92451;-69
2022/04/17 07:25:27;;;;;;;15.52;13.93;;;16.60;52.40;;;;;;6064069;23;95457;-69
2022/04/17 07:27:55;;;;;;;14.32;12.90;;;16.90;50.40;;;;;;6065382;23;95394;-69
2022/04/17 07:30:23;;;;;;;12.52;11.23;;;17.00;50.20;;;;;;6015743;23;94804;-69
2022/04/17 07:32:52;;;;;;;13.00;11.75;;;17.20;49.40;;;;;;6040493;23;92783;-69
2022/04/17 07:35:21;;;;;;;12.82;11.68;;;17.20;48.20;;;;;;6065524;23;93150;-69
2022/04/17 07:37:50;;;;;;;14.25;13.05;;;17.30;48.70;;;;;;6015613;23;97977;-69
2022/04/17 07:40:19;;;;;;;11.93;10.73;;;17.40;48.10;;;;;;6065287;23;102219;-69
2022/04/17 07:42:47;;;;;;;10.98;9.98;;;17.30;47.50;;;;;;6066280;23;92195;-69
2022/04/17 07:45:15;;;;;;;11.48;10.38;;;17.00;47.50;;;;;;6039626;23;95714;-69
2022/04/17 07:47:43;;;;;;;12.93;11.73;;;17.00;48.20;;;;;;6040478;23;93309;-69
2022/04/17 07:50:13;;;;;;;11.05;10.05;;;17.00;48.30;;;;;;6064451;23;94692;-69
2022/04/17 07:52:44;;;;;;;13.48;12.25;;;17.10;48.50;;;;;;6065542;23;92412;-69
2022/04/17 07:55:13;;;;;;;13.05;11.82;;;17.30;48.90;;;;;;6039991;23;98631;-69
2022/04/17 07:58:05;;;;;;;13.80;12.60;;;17.50;48.50;;;;;;6065362;23;92979;-69
2022/04/17 08:01:27;;;;;;;15.40;14.20;;;17.80;46.30;;;;;;6047332;23;92420;-69
2022/04/17 08:04:18;;;;;;;29.27;27.75;;;18.40;45.30;;;;;;6051322;23;92490;-69
2022/04/17 08:06:48;;;;;;;18.33;17.17;;;19.40;44.70;;;;;;6064535;23;93296;-69
2022/04/17 08:09:18;;;;;;;30.73;29.20;;;20.20;42.00;;;;;;6039996;23;97115;-69
2022/04/17 08:11:51;;;;;;;22.73;21.38;;;20.90;40.60;;;;;;6065507;23;92400;-69
2022/04/17 08:14:18;;;;;;;19.73;18.52;;;21.80;38.80;;;;;;6039322;23;97303;-70
2022/04/17 08:16:45;;;;;;;57.13;54.67;;;22.60;35.70;;;;;;6037747;23;95713;-70
2022/04/17 08:19:12;;;;;;;29.42;28.02;;;23.10;35.50;;;;;;6015442;23;96527;-70
2022/04/17 08:21:43;;;;;;;35.47;33.80;;;23.10;33.90;;;;;;6065512;23;92364;-70
2022/04/17 08:24:11;;;;;;;72.47;69.43;;;23.40;34.50;;;;;;6017465;23;92427;-70
2022/04/17 08:26:38;;;;;;;44.78;42.83;;;23.80;34.70;;;;;;6065346;23;93072;-70
2022/04/17 08:29:05;;;;;;;86.15;82.22;;;24.00;33.10;;;;;;6039329;23;94086;-70
2022/04/17 08:31:32;;;;;;;79.90;76.45;;;23.90;32.10;;;;;;6065422;23;92302;-70
2022/04/17 08:34:00;;;;;;;37.90;36.15;;;23.90;33.00;;;;;;6040681;23;91650;-70
2022/04/17 08:36:27;;;;;;;117.15;112.22;;;24.00;32.50;;;;;;6039549;23;95992;-70
2022/04/17 08:38:53;;;;;;;61.30;58.65;;;24.00;32.90;;;;;;6039180;23;93079;-70
2022/04/17 08:41:22;;;;;;;53.70;51.47;;;24.10;32.40;;;;;;6038640;23;94765;-71
2022/04/17 08:43:49;;;;;;;61.92;59.45;;;24.20;32.20;;;;;;6065629;23;92521;-70
2022/04/17 08:46:16;;;;;;;8.55;7.85;;;24.30;32.00;;;;;;6065202;23;93215;-70
2022/04/17 08:48:44;;;;;;;9.35;7.60;;;24.00;31.20;;;;;;6039640;23;106539;-70
2022/04/17 08:51:11;;;;;;;10.05;9.25;;;23.50;31.80;;;;;;6066554;23;92644;-70
2022/04/17 08:53:40;;;;;;;8.57;7.88;;;22.90;31.40;;;;;;6016160;23;92265;-70
2022/04/17 08:56:07;;;;;;;7.38;6.68;;;22.40;33.30;;;;;;6066297;23;93150;-70
2022/04/17 08:58:34;;;;;;;8.63;7.93;;;21.30;33.60;;;;;;6066143;23;95298;-69
2022/04/17 09:01:01;;;;;;;6.82;6.13;;;20.60;35.50;;;;;;6066430;23;92303;-69
2022/04/17 09:03:29;;;;;;;8.52;7.10;;;19.90;37.10;;;;;;6066065;23;92392;-70
2022/04/17 09:05:56;;;;;;;8.18;7.53;;;19.40;38.60;;;;;;6064135;23;102938;-70
2022/04/17 09:08:23;;;;;;;8.93;8.07;;;19.10;40.40;;;;;;6065899;23;95394;-70
2022/04/17 09:10:58;;;;;;;7.95;7.15;;;18.70;40.50;;;;;;6066277;23;92855;-70
2022/04/17 09:13:33;;;;;;;6.72;5.82;;;18.50;41.40;;;;;;6066235;23;92319;-70
2022/04/17 09:16:04;;;;;;;7.13;6.43;;;18.20;42.30;;;;;;6066047;23;93263;-69
2022/04/17 09:18:32;;;;;;;9.57;7.35;;;18.00;42.60;;;;;;6039211;23;92960;-70
2022/04/17 09:21:01;;;;;;;7.15;6.32;;;17.90;43.10;;;;;;6066219;23;92328;-70
2022/04/17 09:23:40;;;;;;;6.50;5.90;;;17.80;42.60;;;;;;6017603;23;91649;-69
2022/04/17 09:26:08;;;;;;;7.30;6.22;;;17.80;44.10;;;;;;6065858;23;93104;-69
2022/04/17 09:28:37;;;;;;;7.32;6.72;;;17.60;41.80;;;;;;6065055;23;92838;-69
2022/04/17 09:31:11;;;;;;;8.20;5.82;;;17.40;41.60;;;;;;6064517;23;94794;-69
2022/04/17 09:33:49;;;;;;;5.72;4.50;;;17.20;45.80;;;;;;6065810;23;92646;-69
2022/04/17 09:36:16;;;;;;;7.05;6.43;;;17.20;44.00;;;;;;6040145;23;93185;-69
2022/04/17 09:38:43;;;;;;;7.75;5.85;;;17.10;43.50;;;;;;6039442;23;95633;-69
2022/04/17 09:41:13;;;;;;;7.03;6.35;;;17.10;44.00;;;;;;6066068;23;92308;-69
2022/04/17 09:43:43;;;;;;;7.13;6.35;;;17.00;43.00;;;;;;6040590;23;92491;-69
2022/04/17 09:46:11;;;;;;;6.32;5.35;;;17.00;44.70;;;;;;6065761;23;92994;-69
2022/04/17 09:48:45;;;;;;;6.90;6.13;;;17.00;44.00;;;;;;6015597;23;106364;-69
2022/04/17 09:51:30;;;;;;;6.85;6.15;;;17.10;42.90;;;;;;6065915;23;92354;-69
2022/04/17 09:54:01;;;;;;;6.45;5.25;;;17.10;45.20;;;;;;6065701;23;92371;-69
2022/04/17 09:56:33;;;;;;;7.00;5.68;;;17.00;45.50;;;;;;6038270;23;97915;-69
2022/04/17 09:59:13;;;;;;;6.90;6.30;;;17.00;45.00;;;;;;6063571;23;97758;-69
2022/04/17 10:01:40;;;;;;;8.98;6.47;;;17.00;44.20;;;;;;6039607;23;92429;-69
2022/04/17 10:04:07;;;;;;;5.68;4.97;;;16.90;42.30;;;;;;6064887;23;106927;-69
2022/04/17 10:06:36;;;;;;;7.70;6.88;;;17.00;44.50;;;;;;6039725;23;93226;-69
2022/04/17 10:09:05;;;;;;;6.28;5.30;;;17.00;43.40;;;;;;6039772;23;93029;-69
2022/04/17 10:11:33;;;;;;;4.40;4.00;;;17.10;43.00;;;;;;6065653;23;92402;-69
2022/04/17 10:14:01;;;;;;;5.35;4.50;;;17.20;41.30;;;;;;6039705;23;91782;-69
2022/04/17 10:16:31;;;;;;;6.15;5.07;;;17.20;40.90;;;;;;6039351;23;96280;-69
2022/04/17 10:19:04;;;;;;;7.10;6.43;;;17.20;40.30;;;;;;6065281;23;92992;-69
2022/04/17 10:21:35;;;;;;;6.68;5.38;;;17.30;40.50;;;;;;6038881;23;94735;-70
2022/04/17 10:24:04;;;;;;;7.28;4.85;;;17.20;40.30;;;;;;6065557;23;92384;-70
2022/04/17 10:26:38;;;;;;;6.35;5.57;;;17.20;43.30;;;;;;6039126;23;95605;-70
2022/04/17 10:29:10;;;;;;;5.80;5.30;;;17.30;41.90;;;;;;6065687;23;92304;-69
2022/04/17 10:31:58;;;;;;;5.22;4.72;;;17.30;42.50;;;;;;6067165;23;92696;-70
2022/04/17 10:34:50;;;;;;;6.68;5.20;;;17.50;42.10;;;;;;6065320;23;92383;-70
2022/04/17 10:37:35;;;;;;;5.88;5.32;;;17.60;41.30;;;;;;6066715;23;92446;-69
2022/04/17 10:40:04;;;;;;;5.32;4.93;;;17.50;40.40;;;;;;6066939;23;92806;-69
2022/04/17 10:42:35;;;;;;;5.82;5.28;;;17.50;40.80;;;;;;6040168;23;105470;-70
2022/04/17 10:45:06;;;;;;;7.60;5.90;;;17.60;40.30;;;;;;6040731;23;92490;-70
2022/04/17 10:47:33;;;;;;;5.57;5.07;;;17.70;39.70;;;;;;6065108;23;94693;-70
2022/04/17 10:50:07;;;;;;;6.50;5.90;;;17.70;39.30;;;;;;6040856;23;95240;-71
2022/04/17 10:52:34;;;;;;;;;;;17.80;39.70;;;;;;6067537;23;92465;-70
2022/04/17 10:55:12;;;;;;;6.93;5.43;;;17.70;42.40;;;;;;6042168;23;93121;-71
2022/04/17 10:57:50;;;;;;;6.15;5.55;;;17.90;43.10;;;;;;6066649;23;92947;-71
2022/04/17 11:00:36;;;;;;;6.03;5.53;;;18.00;40.40;;;;;;6066629;23;93204;-71
2022/04/17 11:03:22;;;;;;;6.72;6.13;;;18.10;37.10;;;;;;6066547;23;95855;-71
2022/04/17 11:06:09;;;;;;;8.13;4.75;;;18.00;38.10;;;;;;6041067;23;91701;-71
2022/04/17 11:08:52;;;;;;;5.88;5.03;;;18.00;38.80;;;;;;6016718;23;95883;-71
2022/04/17 11:11:19;;;;;;;7.18;5.70;;;18.10;38.70;;;;;;6066302;23;92921;-71
2022/04/17 11:14:09;;;;;;;6.78;5.97;;;18.10;40.60;;;;;;6065134;23;94776;-71
2022/04/17 11:16:52;;;;;;;6.68;5.28;;;18.30;38.30;;;;;;6041360;23;92768;-71
2022/04/17 11:19:25;;;;;;;5.45;4.93;;;18.10;35.60;;;;;;6066529;23;93255;-71
2022/04/17 11:21:59;;;;;;;7.38;5.18;;;18.00;35.80;;;;;;6040281;23;93961;-71
2022/04/17 11:24:29;;;;;;;5.68;5.05;;;18.10;37.70;;;;;;6041335;23;92565;-71
2022/04/17 11:26:56;;;;;;;6.20;4.75;;;18.00;35.20;;;;;;6017486;23;92463;-71
2022/04/17 11:29:36;;;;;;;5.03;4.53;;;18.00;35.70;;;;;;6066456;23;93109;-71
2022/04/17 11:32:18;;;;;;;7.13;6.40;;;18.10;36.00;;;;;;6066728;23;93382;-71
2022/04/17 11:34:52;;;;;;;6.88;5.45;;;18.10;35.10;;;;;;6066650;23;92546;-70
2022/04/17 11:37:24;;;;;;;6.10;5.50;;;18.00;36.10;;;;;;6066560;23;92572;-71
2022/04/17 11:39:53;;;;;;;6.35;5.28;;;18.00;35.40;;;;;;6063987;23;100785;-70
2022/04/17 11:42:21;;;;;;;6.82;6.28;;;17.90;35.00;;;;;;6040798;23;95286;-70
2022/04/17 11:44:51;;;;;;;6.55;5.43;;;17.90;35.50;;;;;;6040798;23;92471;-70
2022/04/17 11:47:21;;;;;;;6.55;5.05;;;18.00;36.30;;;;;;6040311;23;92406;-70
2022/04/17 11:49:48;;;;;;;6.63;4.85;;;17.90;35.70;;;;;;6066646;23;92776;-70
2022/04/17 11:52:20;;;;;;;6.35;5.78;;;17.90;34.80;;;;;;6040664;23;92428;-71
2022/04/17 11:54:48;;;;;;;5.82;5.28;;;18.00;36.40;;;;;;6066602;23;92448;-71
2022/04/17 11:57:19;;;;;;;5.93;5.32;;;18.00;36.80;;;;;;6066767;23;91574;-71
2022/04/17 11:59:47;;;;;;;7.53;5.95;;;18.20;36.40;;;;;;6066443;23;93000;-71
2022/04/17 12:02:16;;;;;;;7.35;6.45;;;18.30;37.40;;;;;;6040314;23;95044;-71
2022/04/17 12:04:44;;;;;;;6.10;4.53;;;18.40;37.70;;;;;;6064944;23;94725;-70
2022/04/17 12:07:12;;;;;;;5.45;4.50;;;18.40;34.10;;;;;;6015960;23;92604;-71
2022/04/17 12:09:40;;;;;;;5.45;4.45;;;18.30;33.40;;;;;;6039298;23;116947;-71
2022/04/17 12:12:11;;;;;;;5.32;4.78;;;18.30;34.50;;;;;;6040420;23;92953;-70
2022/04/17 12:14:38;;;;;;;5.32;4.60;;;18.40;33.70;;;;;;6040425;23;92476;-71
2022/04/17 12:17:10;;;;;;;6.20;5.05;;;18.40;33.20;;;;;;6064822;23;92890;-70
2022/04/17 12:19:37;;;;;;;7.22;5.13;;;18.50;33.90;;;;;;6066539;23;93110;-70
2022/04/17 12:22:14;;;;;;;6.13;5.53;;;18.60;32.70;;;;;;6066454;23;92948;-71
2022/04/17 12:24:44;;;;;;;4.82;4.35;;;18.70;31.90;;;;;;6066594;23;92350;-71
2022/04/17 12:27:20;;;;;;;6.68;5.55;;;18.50;32.80;;;;;;6040042;23;92503;-70
2022/04/17 12:29:49;;;;;;;5.95;5.35;;;18.60;32.20;;;;;;6065042;23;95507;-70
2022/04/17 12:32:19;;;;;;;5.40;4.90;;;18.50;32.60;;;;;;6039646;23;97785;-70
2022/04/17 12:34:57;;;;;;;6.72;5.68;;;18.50;32.70;;;;;;6040652;23;92499;-71
2022/04/17 12:37:29;;;;;;;6.18;4.05;;;18.50;33.10;;;;;;6066463;23;92442;-70
2022/04/17 12:40:12;;;;;;;6.40;5.45;;;18.50;32.30;;;;;;6016032;23;98293;-70
2022/04/17 12:42:40;;;;;;;6.07;5.28;;;18.60;32.80;;;;;;6040507;23;92977;-70
2022/04/17 12:45:09;;;;;;;6.18;5.50;;;18.50;35.00;;;;;;6039778;23;92502;-70
2022/04/17 12:47:38;;;;;;;6.78;6.05;;;18.50;35.40;;;;;;6040354;23;91770;-71
2022/04/17 12:50:12;;;;;;;6.22;5.63;;;18.70;36.80;;;;;;6039864;23;96139;-71
2022/04/17 12:52:40;;;;;;;8.10;6.30;;;18.70;35.80;;;;;;6017360;23;96134;-71
2022/04/17 12:55:12;;;;;;;7.28;6.50;;;18.70;36.00;;;;;;6015178;23;94853;-71
2022/04/17 12:57:39;;;;;;;6.75;5.40;;;18.70;35.40;;;;;;6017432;23;92423;-71
2022/04/17 13:00:16;;;;;;;6.00;5.38;;;18.70;34.60;;;;;;6065452;23;100743;-70
2022/04/17 13:02:43;;;;;;;6.78;5.97;;;18.90;35.30;;;;;;6040036;23;95430;-70
2022/04/17 13:05:22;;;;;;;7.10;5.55;;;18.80;34.90;;;;;;6040487;23;92387;-71
2022/04/17 13:07:48;;;;;;;5.93;5.32;;;18.80;35.60;;;;;;6066318;23;92348;-70